createdAt,value
2022-12-03T00:00:12.196Z,12.57
2022-12-03T00:02:41.021Z,15.57
2022-12-03T00:05:10.660Z,15.13
2022-12-03T00:07:38.400Z,13.82
2022-12-03T00:10:07.921Z,13.85
2022-12-03T00:12:35.655Z,13.93
2022-12-03T00:15:03.350Z,15.32
2022-12-03T00:17:31.207Z,15.90
2022-12-03T00:19:58.813Z,14.80
2022-12-03T00:22:27.741Z,12.90
2022-12-03T00:24:55.914Z,14.50
2022-12-03T00:27:23.754Z,15.45
2022-12-03T00:29:51.477Z,14.55
2022-12-03T00:32:19.103Z,14.05
2022-12-03T00:34:46.748Z,14.98
2022-12-03T00:37:14.390Z,14.85
2022-12-03T00:39:43.368Z,14.50
2022-12-03T00:42:10.995Z,13.80
2022-12-03T00:44:38.655Z,13.13
2022-12-03T00:47:06.347Z,14.18
2022-12-03T00:49:34.142Z,14.82
2022-12-03T00:52:01.786Z,16.25
2022-12-03T00:54:32.135Z,14.80
2022-12-03T00:57:01.421Z,15.85
2022-12-03T00:59:29.073Z,14.75
2022-12-03T01:01:56.961Z,15.60
2022-12-03T01:04:24.814Z,15.35
2022-12-03T01:06:52.481Z,14.35
2022-12-03T01:09:20.196Z,12.77
2022-12-03T01:11:47.862Z,15.00
2022-12-03T01:14:19.622Z,14.98
2022-12-03T01:16:47.901Z,15.07
2022-12-03T01:19:16.661Z,13.35
2022-12-03T01:21:45.001Z,14.88
2022-12-03T01:24:13.084Z,15.73
2022-12-03T01:26:40.790Z,14.70
2022-12-03T01:29:08.918Z,14.63
2022-12-03T01:31:55.264Z,15.05
2022-12-03T01:34:22.885Z,13.68
2022-12-03T01:36:52.320Z,13.45
2022-12-03T01:39:20.171Z,16.35
2022-12-03T01:41:52.557Z,14.63
2022-12-03T01:44:23.948Z,15.52
2022-12-03T01:46:55.517Z,16.35
2022-12-03T01:49:27.001Z,13.73
2022-12-03T01:51:56.104Z,15.00
2022-12-03T01:54:28.165Z,15.93
2022-12-03T01:56:56.582Z,14.50
2022-12-03T01:59:33.162Z,16.75
2022-12-03T02:02:12.563Z,14.38
2022-12-03T02:04:40.642Z,15.32
2022-12-03T02:07:19.582Z,15.13
2022-12-03T02:09:47.267Z,15.05
2022-12-03T02:12:18.036Z,15.18
2022-12-03T02:14:45.677Z,15.80
2022-12-03T02:17:14.830Z,15.50
2022-12-03T02:19:42.504Z,15.15
2022-12-03T02:22:20.378Z,16.40
2022-12-03T02:24:54.541Z,15.23
2022-12-03T02:27:24.249Z,15.30
2022-12-03T02:29:52.166Z,16.30
2022-12-03T02:32:23.292Z,15.40
2022-12-03T02:34:52.502Z,17.10
2022-12-03T02:37:24.058Z,17.33
2022-12-03T02:39:55.766Z,17.08
2022-12-03T02:42:37.086Z,17.52
2022-12-03T02:45:09.797Z,18.45
2022-12-03T02:47:43.829Z,16.52
2022-12-03T02:50:15.031Z,16.33
2022-12-03T02:52:45.039Z,17.45
2022-12-03T02:55:15.347Z,16.55
2022-12-03T02:57:47.477Z,14.82
2022-12-03T03:00:16.962Z,15.13
2022-12-03T03:02:46.470Z,17.83
2022-12-03T03:05:16.335Z,14.80
2022-12-03T03:07:44.215Z,15.63
2022-12-03T03:10:15.194Z,16.60
2022-12-03T03:12:44.491Z,15.13
2022-12-03T03:15:12.675Z,17.48
2022-12-03T03:17:40.869Z,15.45
2022-12-03T03:20:12.093Z,17.88
2022-12-03T03:22:41.758Z,16.02
2022-12-03T03:25:11.790Z,16.13
2022-12-03T03:27:41.127Z,15.77
2022-12-03T03:30:11.568Z,15.95
2022-12-03T03:32:40.787Z,17.05
2022-12-03T03:35:09.942Z,15.50
2022-12-03T03:37:37.793Z,17.83
2022-12-03T03:40:06.473Z,15.32
2022-12-03T03:42:34.310Z,17.85
2022-12-03T03:45:02.166Z,16.73
2022-12-03T03:47:31.193Z,15.93
2022-12-03T03:49:58.876Z,15.43
2022-12-03T03:52:27.109Z,16.02
2022-12-03T03:54:54.966Z,16.38
2022-12-03T03:57:22.899Z,17.10
2022-12-03T03:59:50.678Z,18.13
2022-12-03T04:02:20.790Z,14.90
2022-12-03T04:04:50.209Z,19.50
2022-12-03T04:07:18.416Z,17.55
2022-12-03T04:09:46.075Z,17.20
2022-12-03T04:12:31.756Z,15.20
2022-12-03T04:14:59.713Z,15.88
2022-12-03T04:17:27.784Z,15.43
2022-12-03T04:19:56.815Z,17.23
2022-12-03T04:22:41.520Z,16.25
2022-12-03T04:25:28.104Z,16.52
2022-12-03T04:28:13.234Z,15.63
2022-12-03T04:30:40.972Z,15.45
2022-12-03T04:33:26.093Z,15.82
2022-12-03T04:35:55.234Z,15.88
2022-12-03T04:38:23.022Z,15.88
2022-12-03T04:41:04.052Z,18.70
2022-12-03T04:43:34.089Z,17.63
2022-12-03T04:46:03.118Z,15.38
2022-12-03T04:48:30.819Z,17.40
2022-12-03T04:50:59.798Z,18.48
2022-12-03T04:53:27.483Z,17.52
2022-12-03T04:55:55.119Z,16.48
2022-12-03T04:58:22.765Z,17.83
2022-12-03T05:00:50.443Z,16.63
2022-12-03T05:03:18.130Z,17.77
2022-12-03T05:05:45.766Z,15.70
2022-12-03T05:08:14.796Z,18.10
2022-12-03T05:10:42.458Z,19.35
2022-12-03T05:13:10.099Z,16.25
2022-12-03T05:15:37.740Z,17.30
2022-12-03T05:18:05.679Z,18.17
2022-12-03T05:20:42.264Z,18.67
2022-12-03T05:23:10.828Z,15.68
2022-12-03T05:25:39.871Z,15.85
2022-12-03T05:28:08.504Z,17.17
2022-12-03T05:30:36.425Z,17.30
2022-12-03T05:33:04.264Z,17.70
2022-12-03T05:35:31.973Z,16.77
2022-12-03T05:37:59.778Z,18.13
2022-12-03T05:40:27.446Z,16.33
2022-12-03T05:42:56.856Z,17.70
2022-12-03T05:45:26.423Z,16.20
2022-12-03T05:47:54.470Z,17.50
2022-12-03T05:50:23.804Z,17.38
2022-12-03T05:52:51.595Z,15.73
2022-12-03T05:55:19.814Z,16.90
2022-12-03T05:57:48.067Z,16.55
2022-12-03T06:00:20.500Z,16.73
2022-12-03T06:02:48.425Z,17.60
2022-12-03T06:05:19.335Z,17.67
2022-12-03T06:07:47.685Z,18.15
2022-12-03T06:10:17.450Z,18.38
2022-12-03T06:12:45.658Z,19.35
2022-12-03T06:15:14.535Z,18.08
2022-12-03T06:17:43.546Z,17.85
2022-12-03T06:20:14.572Z,18.27
2022-12-03T06:22:42.350Z,16.30
2022-12-03T06:25:10.789Z,16.30
2022-12-03T06:27:38.543Z,16.15
2022-12-03T06:30:08.718Z,16.40
2022-12-03T06:32:36.680Z,17.85
2022-12-03T06:35:06.475Z,18.80
2022-12-03T06:37:34.147Z,18.38
2022-12-03T06:40:01.913Z,18.75
2022-12-03T06:42:29.546Z,18.15
2022-12-03T06:44:57.408Z,17.73
2022-12-03T06:47:25.168Z,16.75
2022-12-03T06:49:53.072Z,15.13
2022-12-03T06:52:22.158Z,18.17
2022-12-03T06:54:49.975Z,19.70
2022-12-03T06:57:17.758Z,18.15
2022-12-03T06:59:45.486Z,16.25
2022-12-03T07:02:13.373Z,15.57
2022-12-03T07:04:46.065Z,16.60
2022-12-03T07:07:14.198Z,14.70
2022-12-03T07:09:43.244Z,16.73
2022-12-03T07:12:10.890Z,17.35
2022-12-03T07:14:38.706Z,17.60
2022-12-03T07:17:06.396Z,17.13
2022-12-03T07:19:34.068Z,19.02
2022-12-03T07:22:01.995Z,16.90
2022-12-03T07:24:29.983Z,15.85
2022-12-03T07:26:59.080Z,18.52
2022-12-03T07:29:26.774Z,19.10
2022-12-03T07:31:54.492Z,16.77
2022-12-03T07:34:22.520Z,16.90
2022-12-03T07:36:50.215Z,17.10
2022-12-03T07:39:17.881Z,18.20
2022-12-03T07:41:45.654Z,16.35
2022-12-03T07:44:15.008Z,17.63
2022-12-03T07:46:42.868Z,17.00
2022-12-03T07:49:12.039Z,17.55
2022-12-03T07:51:39.766Z,17.65
2022-12-03T07:54:07.826Z,18.23
2022-12-03T07:56:35.970Z,17.20
2022-12-03T07:59:03.660Z,17.63
2022-12-03T08:01:32.739Z,17.73
2022-12-03T08:04:00.420Z,17.55
2022-12-03T08:06:28.105Z,17.60
2022-12-03T08:08:55.777Z,16.65
2022-12-03T08:11:23.415Z,19.02
2022-12-03T08:13:51.111Z,19.02
2022-12-03T08:16:22.139Z,18.15
2022-12-03T08:18:52.172Z,19.20
2022-12-03T08:21:22.012Z,18.02
2022-12-03T08:23:49.872Z,19.75
2022-12-03T08:26:23.220Z,17.83
2022-12-03T08:28:51.321Z,18.75
2022-12-03T08:31:26.853Z,20.60
2022-12-03T08:34:16.017Z,19.17
2022-12-03T08:36:43.725Z,16.90
2022-12-03T08:39:27.017Z,18.23
2022-12-03T08:42:15.261Z,19.95
2022-12-03T08:44:42.873Z,18.27
2022-12-03T08:47:15.039Z,19.17
2022-12-03T08:49:48.748Z,16.65
2022-12-03T08:52:19.996Z,18.63
2022-12-03T08:54:53.089Z,18.40
2022-12-03T08:57:26.043Z,19.42
2022-12-03T08:59:57.222Z,20.33
2022-12-03T09:02:31.708Z,18.02
2022-12-03T09:05:14.180Z,18.55
2022-12-03T09:07:41.905Z,19.90
2022-12-03T09:10:10.474Z,19.02
2022-12-03T09:12:38.379Z,18.85
2022-12-03T09:15:06.858Z,18.83
2022-12-03T09:17:34.538Z,20.58
2022-12-03T09:20:03.560Z,17.80
2022-12-03T09:22:31.211Z,17.95
2022-12-03T09:24:58.935Z,17.67
2022-12-03T09:27:26.635Z,18.70
2022-12-03T09:29:54.283Z,20.00
2022-12-03T09:32:22.177Z,18.02
2022-12-03T09:34:49.945Z,19.00
2022-12-03T09:37:18.902Z,20.67
2022-12-03T09:39:46.619Z,18.80
2022-12-03T09:42:14.581Z,19.05
2022-12-03T09:44:42.513Z,17.42
2022-12-03T09:47:10.447Z,20.20
2022-12-03T09:49:41.679Z,18.15
2022-12-03T09:52:13.875Z,19.83
2022-12-03T09:54:51.991Z,19.30
2022-12-03T09:57:20.538Z,18.58
2022-12-03T09:59:48.347Z,19.38
2022-12-03T10:02:22.338Z,21.80
2022-12-03T10:04:50.301Z,19.67
2022-12-03T10:07:18.057Z,18.27
2022-12-03T10:09:47.051Z,18.83
2022-12-03T10:12:16.188Z,19.13
2022-12-03T10:14:44.057Z,19.63
2022-12-03T10:17:12.866Z,18.48
2022-12-03T10:19:42.602Z,19.95
2022-12-03T10:22:10.314Z,18.00
2022-12-03T10:24:39.005Z,20.75
2022-12-03T10:27:23.567Z,18.50
2022-12-03T10:29:56.231Z,18.73
2022-12-03T10:32:27.318Z,20.70
2022-12-03T10:35:09.523Z,18.10
2022-12-03T10:37:37.398Z,18.27
2022-12-03T10:40:08.333Z,19.25
2022-12-03T10:42:39.335Z,18.10
2022-12-03T10:45:19.607Z,18.13
2022-12-03T10:48:12.154Z,17.63
2022-12-03T10:50:48.316Z,20.70
2022-12-03T10:53:16.769Z,18.60
2022-12-03T10:55:46.171Z,18.85
2022-12-03T10:58:22.216Z,20.55
2022-12-03T11:00:51.083Z,18.88
2022-12-03T11:03:21.375Z,19.08
2022-12-03T11:05:49.246Z,18.25
2022-12-03T11:08:19.717Z,21.65
2022-12-03T11:10:56.415Z,17.55
2022-12-03T11:13:46.377Z,20.38
2022-12-03T11:16:15.191Z,18.50
2022-12-03T11:19:02.172Z,17.25
2022-12-03T11:21:30.547Z,18.30
2022-12-03T11:24:20.618Z,19.02
2022-12-03T11:27:27.955Z,18.15
2022-12-03T11:29:59.577Z,19.17
2022-12-03T11:33:09.628Z,19.25
2022-12-03T11:35:53.741Z,17.65
2022-12-03T11:38:47.374Z,18.40
2022-12-03T11:41:20.830Z,19.05
2022-12-03T11:44:28.225Z,18.08
2022-12-03T11:46:58.932Z,19.27
2022-12-03T11:49:33.701Z,19.63
2022-12-03T11:52:03.311Z,17.48
2022-12-03T11:54:35.546Z,19.88
2022-12-03T11:57:03.746Z,18.55
2022-12-03T11:59:31.417Z,18.67
2022-12-03T12:02:00.430Z,20.92
2022-12-03T12:04:31.600Z,18.50
2022-12-03T12:06:59.597Z,19.63
2022-12-03T12:09:50.631Z,18.45
2022-12-03T12:12:29.650Z,19.48
2022-12-03T12:14:57.670Z,19.40
2022-12-03T12:17:37.741Z,20.23
2022-12-03T12:20:27.728Z,18.67
2022-12-03T12:22:56.504Z,19.83
2022-12-03T12:25:40.014Z,19.17
2022-12-03T12:28:08.602Z,18.35
2022-12-03T12:30:37.666Z,18.40
2022-12-03T12:33:19.817Z,19.08
2022-12-03T12:35:47.590Z,18.95
2022-12-03T12:38:18.092Z,20.20
2022-12-03T12:40:49.066Z,17.33
2022-12-03T12:43:24.689Z,18.98
2022-12-03T12:45:54.710Z,17.98
2022-12-03T12:48:27.186Z,19.15
2022-12-03T12:51:01.162Z,17.48
2022-12-03T12:53:31.885Z,18.75
2022-12-03T12:56:01.871Z,17.92
2022-12-03T12:58:33.142Z,20.10
2022-12-03T13:01:04.998Z,21.40
2022-12-03T13:03:37.804Z,19.55
2022-12-03T13:06:05.990Z,18.27
2022-12-03T13:08:40.180Z,19.48
2022-12-03T13:11:30.270Z,16.90
2022-12-03T13:13:58.032Z,18.38
2022-12-03T13:16:29.672Z,18.90
2022-12-03T13:19:00.148Z,19.63
2022-12-03T13:21:37.472Z,17.50
2022-12-03T13:24:27.556Z,19.80
2022-12-03T13:26:55.529Z,19.52
2022-12-03T13:29:24.891Z,20.60
2022-12-03T13:31:55.291Z,17.40
2022-12-03T13:34:26.616Z,21.20
2022-12-03T13:36:58.550Z,18.45
2022-12-03T13:39:31.808Z,19.25
2022-12-03T13:42:31.056Z,18.80
2022-12-03T13:44:58.760Z,20.60
2022-12-03T13:47:26.969Z,19.92
2022-12-03T13:49:58.871Z,16.90
2022-12-03T13:52:27.706Z,20.88
2022-12-03T13:54:57.434Z,19.83
2022-12-03T13:57:25.244Z,19.23
2022-12-03T13:59:53.197Z,19.70
2022-12-03T14:02:21.375Z,19.30
2022-12-03T14:04:49.130Z,20.13
2022-12-03T14:07:18.201Z,18.23
2022-12-03T14:09:45.825Z,18.30
2022-12-03T14:12:33.767Z,20.02
2022-12-03T14:15:02.421Z,20.55
2022-12-03T14:17:30.788Z,19.30
2022-12-03T14:20:00.318Z,19.75
2022-12-03T14:22:30.176Z,20.00
2022-12-03T14:24:58.258Z,20.08
2022-12-03T14:27:26.127Z,20.80
2022-12-03T14:29:54.170Z,20.10
2022-12-03T14:32:22.089Z,20.20
2022-12-03T14:34:49.858Z,19.17
2022-12-03T14:37:17.786Z,20.25
2022-12-03T14:39:46.841Z,20.00
2022-12-03T14:42:14.620Z,19.45
2022-12-03T14:44:43.660Z,19.98
2022-12-03T14:47:12.431Z,18.60
2022-12-03T14:49:40.650Z,18.02
2022-12-03T14:52:12.404Z,20.15
2022-12-03T14:54:42.335Z,18.40
2022-12-03T14:57:13.491Z,21.45
2022-12-03T14:59:41.740Z,21.15
2022-12-03T15:02:10.695Z,19.98
2022-12-03T15:04:38.617Z,20.15
2022-12-03T15:07:06.936Z,19.80
2022-12-03T15:09:34.665Z,18.60
2022-12-03T15:12:03.692Z,18.98
2022-12-03T15:14:32.655Z,18.30
2022-12-03T15:17:00.377Z,21.55
2022-12-03T15:19:28.146Z,18.67
2022-12-03T15:21:55.880Z,18.50
2022-12-03T15:24:23.679Z,18.50
2022-12-03T15:26:53.291Z,19.52
2022-12-03T15:29:21.485Z,20.10
2022-12-03T15:31:50.650Z,17.70
2022-12-03T15:34:22.439Z,18.58
2022-12-03T15:36:50.884Z,19.75
2022-12-03T15:39:18.657Z,19.02
2022-12-03T15:41:46.281Z,17.92
2022-12-03T15:44:13.931Z,21.40
2022-12-03T15:46:41.628Z,19.25
2022-12-03T15:49:10.707Z,19.60
2022-12-03T15:51:38.393Z,19.08
2022-12-03T15:54:06.446Z,18.15
2022-12-03T15:56:37.322Z,18.38
2022-12-03T15:59:05.107Z,18.52
2022-12-03T16:01:32.933Z,20.35
2022-12-03T16:04:00.706Z,18.52
2022-12-03T16:06:29.804Z,17.83
2022-12-03T16:08:57.406Z,18.52
2022-12-03T16:11:24.986Z,18.45
2022-12-03T16:13:52.637Z,18.92
2022-12-03T16:16:20.354Z,19.08
2022-12-03T16:18:48.249Z,20.13
2022-12-03T16:21:15.867Z,19.95
2022-12-03T16:23:44.908Z,20.17
2022-12-03T16:26:12.579Z,17.80
2022-12-03T16:28:40.208Z,18.08
2022-12-03T16:31:07.896Z,18.63
2022-12-03T16:33:35.660Z,18.48
2022-12-03T16:36:03.291Z,19.23
2022-12-03T16:38:33.532Z,16.73
2022-12-03T16:41:03.069Z,19.83
2022-12-03T16:43:30.689Z,16.75
2022-12-03T16:46:20.480Z,16.17
2022-12-03T16:48:49.049Z,17.50
2022-12-03T16:51:19.137Z,17.33
2022-12-03T16:53:47.050Z,18.40
2022-12-03T16:56:16.286Z,18.40
2022-12-03T16:58:44.226Z,17.90
2022-12-03T17:01:12.419Z,17.90
2022-12-03T17:03:40.119Z,16.60
2022-12-03T17:06:08.257Z,16.08
2022-12-03T17:08:35.882Z,18.73
2022-12-03T17:11:04.200Z,16.23
2022-12-03T17:13:33.267Z,17.42
2022-12-03T17:16:02.404Z,17.95
2022-12-03T17:18:30.163Z,18.05
2022-12-03T17:20:57.838Z,15.55
2022-12-03T17:23:25.501Z,17.40
2022-12-03T17:25:53.146Z,16.77
2022-12-03T17:28:20.819Z,16.95
2022-12-03T17:30:49.960Z,17.05
2022-12-03T17:33:17.606Z,18.52
2022-12-03T17:35:46.476Z,17.15
2022-12-03T17:38:14.079Z,17.20
2022-12-03T17:40:41.733Z,16.92
2022-12-03T17:43:09.589Z,16.88
2022-12-03T17:45:37.399Z,16.42
2022-12-03T17:48:08.072Z,14.38
2022-12-03T17:50:36.216Z,16.05
2022-12-03T17:53:05.438Z,16.35
2022-12-03T17:55:38.567Z,16.85
2022-12-03T17:58:13.128Z,17.50
2022-12-03T18:00:41.115Z,18.52
2022-12-03T18:03:10.291Z,16.77
2022-12-03T18:05:38.165Z,16.85
2022-12-03T18:08:06.744Z,16.83
2022-12-03T18:10:34.549Z,17.67
2022-12-03T18:13:02.595Z,18.23
2022-12-03T18:15:30.935Z,18.50
2022-12-03T18:17:58.718Z,16.65
2022-12-03T18:20:27.975Z,16.20
2022-12-03T18:22:55.701Z,19.20
2022-12-03T18:25:23.664Z,17.05
2022-12-03T18:27:51.560Z,17.58
2022-12-03T18:30:19.412Z,18.50
2022-12-03T18:32:47.742Z,15.90
2022-12-03T18:35:15.655Z,17.83
2022-12-03T18:37:44.968Z,17.20
2022-12-03T18:40:20.006Z,18.25
2022-12-03T18:42:47.856Z,15.13
2022-12-03T18:45:16.772Z,18.48
2022-12-03T18:47:44.970Z,17.23
2022-12-03T18:50:13.405Z,17.33
2022-12-03T18:52:41.502Z,16.63
2022-12-03T18:55:15.823Z,17.10
2022-12-03T18:57:43.648Z,18.17
2022-12-03T19:00:13.856Z,18.15
2022-12-03T19:05:30.934Z,17.88
2022-12-03T19:07:58.699Z,20.05
2022-12-03T19:10:28.218Z,18.67
2022-12-03T19:12:55.897Z,17.65
2022-12-03T19:15:24.001Z,17.38
2022-12-03T19:17:52.274Z,19.60
2022-12-03T19:20:20.166Z,18.17
2022-12-03T19:22:47.858Z,19.52
2022-12-03T19:25:15.704Z,19.20
2022-12-03T19:27:44.771Z,19.10
2022-12-03T19:30:13.415Z,19.65
2022-12-03T19:32:41.123Z,18.67
2022-12-03T19:35:11.263Z,19.35
2022-12-03T19:37:39.160Z,17.80
2022-12-03T19:40:10.178Z,20.10
2022-12-03T19:42:37.913Z,20.50
2022-12-03T19:45:08.077Z,17.95
2022-12-03T19:47:36.395Z,19.83
2022-12-03T19:50:04.425Z,20.90
2022-12-03T19:52:32.187Z,19.38
2022-12-03T19:54:59.810Z,19.02
2022-12-03T19:57:27.553Z,19.13
2022-12-03T19:59:55.515Z,19.55
2022-12-03T20:02:24.869Z,19.77
2022-12-03T20:04:52.687Z,19.13
2022-12-03T20:07:20.330Z,20.98
2022-12-03T20:09:50.500Z,20.30
2022-12-03T20:12:18.274Z,20.95
2022-12-03T20:14:46.410Z,20.33
2022-12-03T20:17:14.159Z,19.33
2022-12-03T20:19:43.146Z,19.73
2022-12-03T20:22:10.828Z,22.17
2022-12-03T20:24:38.738Z,20.70
2022-12-03T20:27:06.410Z,20.10
2022-12-03T20:29:34.096Z,20.63
2022-12-03T20:32:01.911Z,21.70
2022-12-03T20:34:29.644Z,19.48
2022-12-03T20:36:58.662Z,21.10
2022-12-03T20:39:26.323Z,21.77
2022-12-03T20:41:54.052Z,20.65
2022-12-03T20:44:21.888Z,21.00
2022-12-03T20:46:49.631Z,21.50
2022-12-03T20:49:17.461Z,23.13
2022-12-03T20:51:45.208Z,20.25
2022-12-03T20:54:14.326Z,21.10
2022-12-03T20:56:42.304Z,22.48
2022-12-03T20:59:12.663Z,20.25
2022-12-03T21:01:41.085Z,21.55
2022-12-03T21:04:10.474Z,20.05
2022-12-03T21:06:38.293Z,21.60
2022-12-03T21:09:07.449Z,21.40
2022-12-03T21:11:40.068Z,21.25
2022-12-03T21:14:08.452Z,22.65
2022-12-03T21:17:06.690Z,22.38
2022-12-03T21:19:27.094Z,22.73
2022-12-03T21:21:54.913Z,22.15
2022-12-03T21:24:22.838Z,23.20
2022-12-03T21:26:52.066Z,23.67
2022-12-03T21:29:19.803Z,22.15
2022-12-03T21:31:47.623Z,24.27
2022-12-03T21:34:15.506Z,23.00
2022-12-03T21:36:43.250Z,25.30
2022-12-03T21:39:11.061Z,23.00
2022-12-03T21:41:38.893Z,23.75
2022-12-03T21:44:07.954Z,22.00
2022-12-03T21:47:10.361Z,24.08
2022-12-03T21:49:23.451Z,26.88
2022-12-03T21:51:51.157Z,23.75
2022-12-03T21:54:19.002Z,23.10
2022-12-03T21:56:46.709Z,25.05
2022-12-03T21:59:16.412Z,23.13
2022-12-03T22:01:47.060Z,24.92
2022-12-03T22:04:15.373Z,23.38
2022-12-03T22:06:43.051Z,23.65
2022-12-03T22:09:10.852Z,21.73
2022-12-03T22:11:38.803Z,22.83
2022-12-03T22:14:08.146Z,23.42
2022-12-03T22:16:37.328Z,23.58
2022-12-03T22:19:05.373Z,22.63
2022-12-03T22:21:33.124Z,24.67
2022-12-03T22:24:01.010Z,22.73
2022-12-03T22:26:28.795Z,23.10
2022-12-03T22:28:56.624Z,21.20
2022-12-03T22:31:24.541Z,23.50
2022-12-03T22:33:53.757Z,24.42
2022-12-03T22:36:21.989Z,24.45
2022-12-03T22:38:50.197Z,21.95
2022-12-03T22:41:18.705Z,23.75
2022-12-03T22:43:46.918Z,22.95
2022-12-03T22:46:15.956Z,24.88
2022-12-03T22:48:46.125Z,23.33
2022-12-03T22:51:17.984Z,23.52
2022-12-03T22:53:45.886Z,22.23
2022-12-03T22:56:13.933Z,25.13
2022-12-03T22:58:42.207Z,22.00
2022-12-03T23:01:10.360Z,21.70
2022-12-03T23:03:38.266Z,22.88
2022-12-03T23:06:10.996Z,22.52
2022-12-03T23:08:40.309Z,22.88
2022-12-03T23:11:08.989Z,22.33
2022-12-03T23:13:37.178Z,24.00
2022-12-03T23:16:06.074Z,22.27
2022-12-03T23:18:34.243Z,21.45
2022-12-03T23:21:02.022Z,21.83
2022-12-03T23:23:29.983Z,23.25
2022-12-03T23:26:00.355Z,21.20
2022-12-03T23:28:29.848Z,24.30
2022-12-03T23:30:58.014Z,21.33
2022-12-03T23:33:26.385Z,23.90
2022-12-03T23:35:54.368Z,24.50
2022-12-03T23:38:22.560Z,22.75
2022-12-03T23:40:52.913Z,25.25
2022-12-03T23:43:21.973Z,23.40
2022-12-03T23:45:49.692Z,22.38
2022-12-03T23:48:17.572Z,24.40
2022-12-03T23:50:45.251Z,23.02
2022-12-03T23:53:13.006Z,22.13
2022-12-03T23:55:41.397Z,23.55
2022-12-03T23:58:09.149Z,24.85
